Startpagina
METAR-TAF:

METAR-TAF

Vliegvelden :

Meppen, Duitsland

Militair vliegvled

breedte: 52-43-24N, lengte: 007-19-35E, hoogte: 21 m

Actueel weer

Dit bericht is 45 minuten geleden gemaakt, om 09:20 UTC
Wind 6 kt uit het zuidzuidwesten
Temperatuur 2°C
Vochtigheid 75%
Druk 1020 hPa
Zicht 10 km of meer
Weinig wolken op 3200 ft
Gebroken wolken op 8000 ft
Gebroken wolken op 11000 ft

METAR: ETWM 190920Z 20006KT 9999 FEW032 BKN080 BKN110 02/M02 Q1020 BLU

Tijdstip: 11:05 (10:05 UTC)


TAF: ontbreekt

Waarnemingen en weersverwachtingen van meer dan 4000 vliegvelden (METAR en TAF).

De beschikbare stations zijn de gele en rode punten op de kaart.

Ga met uw muis naar het station om de naam te zien.

Klik dan om waarnemingen en weersverwachtingen te zien.

kaart wijzigen: klik op de groene knoppen met een zwart kruis om in te zoomen, op de groene knop met een streepje om uit te zoomen of op de groene pijlen voor aangrenzende kaarten.


METAR-TAF: